Time;durP1;ratioP1;P1;durP2;ratioP2;P2;SDS_P1;SDS_P2;PMS_P1;PMS_P2;Temp;Humidity;BMP_temperature;BMP_pressure;BME280_temperature;BME280_humidity;BME280_pressure;Samples;Min_cycle;Max_cycle;Signal;HPM_P1;HPM_P2
2022/03/24 00:02:22;;;;;;;;;;;21.20;23.50;;;;;;5148219;27;19984;-59
2022/03/24 00:04:47;;;;;;;;;;;21.00;23.70;;;;;;5148646;27;20361;-59
2022/03/24 00:07:13;;;;;;;;;;;21.20;23.50;;;;;;5144936;27;19927;-59
2022/03/24 00:09:39;;;;;;;;;;;21.00;23.70;;;;;;5145931;27;19923;-59
2022/03/24 00:12:06;;;;;;;;;;;21.20;23.40;;;;;;5144929;27;19926;-52
2022/03/24 00:14:32;;;;;;;;;;;21.10;23.40;;;;;;5145119;27;20426;-53
2022/03/24 00:16:58;;;;;;;;;;;21.30;23.30;;;;;;5150766;27;19923;-58
2022/03/24 00:19:23;;;;;;;;;;;20.90;23.70;;;;;;5145383;27;19943;-50
2022/03/24 00:21:49;;;;;;;;;;;21.10;23.60;;;;;;5144900;27;19927;-57
2022/03/24 00:24:15;;;;;;;;;;;21.10;23.60;;;;;;5150299;27;19923;-58
2022/03/24 00:26:41;;;;;;;;;;;21.10;23.60;;;;;;5143178;27;19927;-57
2022/03/24 00:29:09;;;;;;;;;;;21.20;23.60;;;;;;5147584;27;20280;-55
2022/03/24 00:31:35;;;;;;;;;;;21.00;23.60;;;;;;5144902;27;20386;-51
2022/03/24 00:34:01;;;;;;;;;;;21.20;23.60;;;;;;5145405;27;19923;-58
2022/03/24 00:36:26;;;;;;;;;;;21.00;23.70;;;;;;5150275;27;20035;-57
2022/03/24 00:38:53;;;;;;;;;;;21.30;23.50;;;;;;5143653;27;19923;-59
2022/03/24 00:41:19;;;;;;;;;;;21.00;23.70;;;;;;5144731;27;20231;-57
2022/03/24 00:43:48;;;;;;;;;;;21.10;23.50;;;;;;5149831;27;19927;-57
2022/03/24 00:46:18;;;;;;;;;;;21.20;23.50;;;;;;5140965;27;19930;-57
2022/03/24 00:48:44;;;;;;;;;;;21.10;23.50;;;;;;5147025;27;19930;-54
2022/03/24 00:51:10;;;;;;;;;;;21.10;23.60;;;;;;5145900;27;19927;-58
2022/03/24 00:53:35;;;;;;;;;;;21.10;23.70;;;;;;5145112;27;19931;-51
2022/03/24 00:56:01;;;;;;;;;;;21.00;23.70;;;;;;5149673;27;19979;-58
2022/03/24 00:58:27;;;;;;;;;;;21.20;23.60;;;;;;5144555;27;19923;-52
2022/03/24 01:00:53;;;;;;;;;;;21.00;23.90;;;;;;5144164;27;20378;-58
2022/03/24 01:03:19;;;;;;;;;;;21.20;23.80;;;;;;5148322;27;19924;-57
2022/03/24 01:05:47;;;;;;;;;;;21.10;23.70;;;;;;5140439;27;20293;-59
2022/03/24 01:08:13;;;;;;;;;;;21.00;23.90;;;;;;5145352;27;19926;-52
2022/03/24 01:10:39;;;;;;;;;;;21.10;23.80;;;;;;5148796;27;20285;-57
2022/03/24 01:13:05;;;;;;;;;;;21.20;23.80;;;;;;5144254;27;19927;-57
2022/03/24 01:15:31;;;;;;;;;;;21.10;23.70;;;;;;5149538;27;20419;-60
2022/03/24 01:17:59;;;;;;;;;;;21.10;23.70;;;;;;5143999;27;19931;-59
2022/03/24 01:20:25;;;;;;;;;;;21.20;23.60;;;;;;5143570;27;20267;-60
2022/03/24 01:22:51;;;;;;;;;;;20.80;24.00;;;;;;5145390;27;19930;-58
2022/03/24 01:25:17;;;;;;;;;;;21.20;23.70;;;;;;5142575;27;20394;-60
2022/03/24 01:27:43;;;;;;;;;;;21.10;23.80;;;;;;5143923;27;19927;-51
2022/03/24 01:30:09;;;;;;;;;;;21.30;23.50;;;;;;5149388;27;19931;-56
2022/03/24 01:32:34;;;;;;;;;;;21.00;23.80;;;;;;5143509;27;19936;-50
2022/03/24 01:35:01;;;;;;;;;;;21.10;23.50;;;;;;5149242;27;19923;-56
2022/03/24 01:37:27;;;;;;;;;;;21.20;23.50;;;;;;5124840;27;19923;-59
2022/03/24 01:39:52;;;;;;;;;;;21.00;23.60;;;;;;5142672;27;19962;-58
2022/03/24 01:42:18;;;;;;;;;;;21.20;23.40;;;;;;5144781;27;19934;-51
2022/03/24 01:44:47;;;;;;;;;;;20.90;23.60;;;;;;5143202;27;19931;-58
2022/03/24 01:47:13;;;;;;;;;;;21.20;23.40;;;;;;5143376;27;19923;-54
2022/03/24 01:49:40;;;;;;;;;;;21.10;23.40;;;;;;5148584;27;20393;-60
2022/03/24 01:52:07;;;;;;;;;;;21.20;23.30;;;;;;5143329;27;20331;-59
2022/03/24 01:54:32;;;;;;;;;;;21.10;23.40;;;;;;5147688;27;19981;-55
2022/03/24 01:56:58;;;;;;;;;;;21.30;23.20;;;;;;5144768;27;19927;-58
2022/03/24 01:59:24;;;;;;;;;;;21.00;23.50;;;;;;5140346;27;19954;-50
2022/03/24 02:01:50;;;;;;;;;;;21.20;23.30;;;;;;5127923;27;19981;-59
2022/03/24 02:04:16;;;;;;;;;;;21.20;23.40;;;;;;5143338;27;19923;-54
2022/03/24 02:06:42;;;;;;;;;;;21.10;23.40;;;;;;5124686;27;19923;-58
2022/03/24 02:09:08;;;;;;;;;;;21.20;23.30;;;;;;5148299;27;19927;-56
2022/03/24 02:11:34;;;;;;;;;;;21.10;23.40;;;;;;5142938;27;19930;-56
2022/03/24 02:14:00;;;;;;;;;;;21.20;23.30;;;;;;5144842;27;19927;-57
2022/03/24 02:16:30;;;;;;;;;;;21.10;23.40;;;;;;5146441;27;19927;-50
2022/03/24 02:18:59;;;;;;;;;;;21.20;23.30;;;;;;5120035;27;20027;-61
2022/03/24 02:21:27;;;;;;;;;;;21.20;23.30;;;;;;5147900;27;20176;-58
2022/03/24 02:23:53;;;;;;;;;;;21.20;23.30;;;;;;5143237;27;19945;-59
2022/03/24 02:26:19;;;;;;;;;;;21.00;23.50;;;;;;5142984;27;20005;-50
2022/03/24 02:28:45;;;;;;;;;;;21.20;23.40;;;;;;5148147;27;19931;-58
2022/03/24 02:31:11;;;;;;;;;;;21.20;23.30;;;;;;5142474;27;19929;-60
2022/03/24 02:33:37;;;;;;;;;;;21.30;23.30;;;;;;5142714;27;20131;-58
2022/03/24 02:36:03;;;;;;;;;;;21.20;23.40;;;;;;5145912;27;19931;-59
2022/03/24 02:38:31;;;;;;;;;;;21.00;23.60;;;;;;5139696;27;19923;-58
2022/03/24 02:40:56;;;;;;;;;;;21.30;23.30;;;;;;5147906;27;19975;-51
2022/03/24 02:43:23;;;;;;;;;;;21.10;23.50;;;;;;5143160;27;20180;-57
2022/03/24 02:45:50;;;;;;;;;;;21.10;23.50;;;;;;5142463;27;19923;-50
2022/03/24 02:48:16;;;;;;;;;;;21.20;23.40;;;;;;5147811;27;19923;-58
2022/03/24 02:50:42;;;;;;;;;;;21.10;23.40;;;;;;5123872;27;20319;-57
2022/03/24 02:53:08;;;;;;;;;;;21.20;23.30;;;;;;5141847;27;19923;-59
2022/03/24 02:55:34;;;;;;;;;;;21.20;23.30;;;;;;5143748;27;19930;-60
2022/03/24 02:58:00;;;;;;;;;;;21.00;23.50;;;;;;5141624;27;20339;-59
2022/03/24 03:00:27;;;;;;;;;;;21.20;23.40;;;;;;5144783;27;19949;-57
2022/03/24 03:02:53;;;;;;;;;;;21.00;23.50;;;;;;5150519;27;20402;-56
2022/03/24 03:05:19;;;;;;;;;;;21.20;23.40;;;;;;5146634;27;20062;-59
2022/03/24 03:07:45;;;;;;;;;;;21.10;23.40;;;;;;5133527;27;20014;-52
2022/03/24 03:10:11;;;;;;;;;;;21.20;23.30;;;;;;5146675;27;19923;-57
2022/03/24 03:12:37;;;;;;;;;;;21.20;23.30;;;;;;5145004;27;19924;-55
2022/03/24 03:15:03;;;;;;;;;;;21.10;23.40;;;;;;5129532;27;19973;-56
2022/03/24 03:17:29;;;;;;;;;;;21.20;23.30;;;;;;5146518;27;20728;-58
2022/03/24 03:19:55;;;;;;;;;;;21.00;23.40;;;;;;5146337;27;19923;-57
2022/03/24 03:22:21;;;;;;;;;;;21.20;23.30;;;;;;5133042;27;19980;-61
2022/03/24 03:24:46;;;;;;;;;;;21.10;23.40;;;;;;5145900;27;19927;-50
2022/03/24 03:27:12;;;;;;;;;;;21.00;23.50;;;;;;5151560;27;20515;-60
2022/03/24 03:29:38;;;;;;;;;;;21.20;23.40;;;;;;5145864;27;20000;-60
2022/03/24 03:32:04;;;;;;;;;;;20.80;23.70;;;;;;5142613;27;19923;-60
2022/03/24 03:34:30;;;;;;;;;;;21.10;23.50;;;;;;5131349;27;20328;-59
2022/03/24 03:36:56;;;;;;;;;;;21.10;23.40;;;;;;5143789;27;19923;-59
2022/03/24 03:39:22;;;;;;;;;;;21.20;23.40;;;;;;5145855;27;20309;-58
2022/03/24 03:41:48;;;;;;;;;;;21.20;23.40;;;;;;5151403;27;20018;-54
2022/03/24 03:44:14;;;;;;;;;;;21.10;23.50;;;;;;5145941;27;19927;-60
2022/03/24 03:46:39;;;;;;;;;;;21.10;23.50;;;;;;5151239;27;19972;-54
2022/03/24 03:49:08;;;;;;;;;;;21.20;23.50;;;;;;5144995;27;19923;-57
2022/03/24 03:51:35;;;;;;;;;;;21.10;23.50;;;;;;5141246;27;20018;-57
2022/03/24 03:54:00;;;;;;;;;;;21.10;23.50;;;;;;5150919;27;19927;-57
2022/03/24 03:56:26;;;;;;;;;;;21.20;23.40;;;;;;5145580;27;19930;-58
2022/03/24 03:58:52;;;;;;;;;;;21.00;23.60;;;;;;5145563;27;20213;-51
2022/03/24 04:01:18;;;;;;;;;;;21.20;23.30;;;;;;5151073;27;20297;-57
2022/03/24 04:03:44;;;;;;;;;;;21.00;23.50;;;;;;5145414;27;20050;-51
2022/03/24 04:06:10;;;;;;;;;;;21.10;23.40;;;;;;5149540;27;19930;-56
2022/03/24 04:08:37;;;;;;;;;;;21.10;23.40;;;;;;5144842;27;19939;-58
2022/03/24 04:11:03;;;;;;;;;;;21.20;23.30;;;;;;5142381;27;20006;-58
2022/03/24 04:13:29;;;;;;;;;;;21.20;23.30;;;;;;5150564;27;19923;-55
2022/03/24 04:15:55;;;;;;;;;;;21.20;23.30;;;;;;5145752;27;19931;-60
2022/03/24 04:18:22;;;;;;;;;;;21.00;23.50;;;;;;5145009;27;20393;-53
2022/03/24 04:20:48;;;;;;;;;;;21.20;23.30;;;;;;5150830;27;19971;-60
2022/03/24 04:23:13;;;;;;;;;;;21.20;23.40;;;;;;5145147;27;20370;-52
2022/03/24 04:25:39;;;;;;;;;;;21.10;23.40;;;;;;5145129;27;20553;-59
2022/03/24 04:28:05;;;;;;;;;;;21.10;23.40;;;;;;5146087;27;20300;-58
2022/03/24 04:30:31;;;;;;;;;;;21.10;23.40;;;;;;5144228;27;19929;-59
2022/03/24 04:32:58;;;;;;;;;;;21.20;23.40;;;;;;5150412;27;20014;-59
2022/03/24 04:35:23;;;;;;;;;;;21.00;23.50;;;;;;5126240;27;19927;-52
2022/03/24 04:37:49;;;;;;;;;;;21.30;23.30;;;;;;5144717;27;19934;-59
2022/03/24 04:40:16;;;;;;;;;;;21.00;23.60;;;;;;5150204;27;19927;-57
2022/03/24 04:42:42;;;;;;;;;;;21.20;23.30;;;;;;5144612;27;19927;-53
2022/03/24 04:45:09;;;;;;;;;;;21.00;23.40;;;;;;5143366;27;20358;-59
2022/03/24 04:47:35;;;;;;;;;;;21.10;23.40;;;;;;5146120;27;19923;-51
2022/03/24 04:50:01;;;;;;;;;;;21.10;23.40;;;;;;5144534;27;19922;-60
2022/03/24 04:52:27;;;;;;;;;;;21.00;23.50;;;;;;5150165;27;19923;-53
2022/03/24 04:54:52;;;;;;;;;;;21.10;23.40;;;;;;5144704;27;19930;-60
2022/03/24 04:57:18;;;;;;;;;;;21.00;23.50;;;;;;5144247;27;19930;-60
2022/03/24 04:59:44;;;;;;;;;;;21.20;23.30;;;;;;5131312;27;19935;-52
2022/03/24 05:02:15;;;;;;;;;;;20.90;23.50;;;;;;5144240;27;19934;-58
2022/03/24 05:04:43;;;;;;;;;;;21.10;23.30;;;;;;5140826;27;19923;-60
2022/03/24 05:07:09;;;;;;;;;;;21.20;23.20;;;;;;5148273;27;19933;-57
2022/03/24 05:09:35;;;;;;;;;;;21.10;23.30;;;;;;5125573;27;20379;-60
2022/03/24 05:12:01;;;;;;;;;;;21.30;23.10;;;;;;5147179;27;20438;-57
2022/03/24 05:14:27;;;;;;;;;;;21.00;23.40;;;;;;5146921;27;19923;-58
2022/03/24 05:16:52;;;;;;;;;;;21.00;23.20;;;;;;5144014;27;20313;-58
2022/03/24 05:19:19;;;;;;;;;;;21.20;23.20;;;;;;5149495;27;19984;-60
2022/03/24 05:21:45;;;;;;;;;;;21.20;23.20;;;;;;5143171;27;19933;-57
2022/03/24 05:24:11;;;;;;;;;;;21.30;23.00;;;;;;5139360;27;20316;-61
2022/03/24 05:26:38;;;;;;;;;;;21.00;23.40;;;;;;5149025;27;19923;-59
2022/03/24 05:29:03;;;;;;;;;;;21.10;23.20;;;;;;5143769;27;19935;-59
2022/03/24 05:31:29;;;;;;;;;;;21.20;23.10;;;;;;5143867;27;19927;-56
2022/03/24 05:33:55;;;;;;;;;;;21.20;23.10;;;;;;5149032;27;20366;-57
2022/03/24 05:36:21;;;;;;;;;;;21.30;23.00;;;;;;5143518;27;19926;-58
2022/03/24 05:38:46;;;;;;;;;;;21.10;23.20;;;;;;5130553;27;19939;-58
2022/03/24 05:41:13;;;;;;;;;;;21.20;23.10;;;;;;5141969;27;19934;-59
2022/03/24 05:43:39;;;;;;;;;;;21.00;23.30;;;;;;5138736;27;19923;-60
2022/03/24 05:46:05;;;;;;;;;;;21.20;23.10;;;;;;5148927;27;19934;-55
2022/03/24 05:48:32;;;;;;;;;;;21.20;23.10;;;;;;5143423;27;20369;-55
2022/03/24 05:50:59;;;;;;;;;;;21.10;23.20;;;;;;5143356;27;20223;-60
2022/03/24 05:53:25;;;;;;;;;;;21.20;23.10;;;;;;5148702;27;20515;-58
2022/03/24 05:55:51;;;;;;;;;;;21.00;23.30;;;;;;5143088;27;19927;-57
2022/03/24 05:58:17;;;;;;;;;;;21.20;23.10;;;;;;5148153;27;20388;-57
2022/03/24 06:00:43;;;;;;;;;;;21.00;23.30;;;;;;5138811;27;20307;-58
2022/03/24 06:03:09;;;;;;;;;;;21.20;23.20;;;;;;5142662;27;20202;-59
2022/03/24 06:05:36;;;;;;;;;;;21.10;23.30;;;;;;5148603;27;19962;-61
2022/03/24 06:08:03;;;;;;;;;;;21.30;23.10;;;;;;5125035;27;20617;-51
2022/03/24 06:10:30;;;;;;;;;;;21.00;23.30;;;;;;5143012;27;20247;-56
2022/03/24 06:12:58;;;;;;;;;;;21.10;23.40;;;;;;5148577;27;19927;-59
2022/03/24 06:15:24;;;;;;;;;;;21.10;23.30;;;;;;5142899;27;20453;-57
2022/03/24 06:17:49;;;;;;;;;;;21.20;23.30;;;;;;5144291;27;19923;-59
2022/03/24 06:20:16;;;;;;;;;;;21.10;23.40;;;;;;5142127;27;20390;-55
2022/03/24 06:22:42;;;;;;;;;;;21.20;23.30;;;;;;5142773;27;20398;-56
2022/03/24 06:25:08;;;;;;;;;;;21.10;23.40;;;;;;5148308;27;19927;-53
2022/03/24 06:27:34;;;;;;;;;;;21.20;23.30;;;;;;5124268;27;20373;-57
2022/03/24 06:30:00;;;;;;;;;;;21.10;23.50;;;;;;5143187;27;19923;-50
2022/03/24 06:32:27;;;;;;;;;;;21.10;23.50;;;;;;5148082;27;20469;-57
2022/03/24 06:34:53;;;;;;;;;;;21.10;23.50;;;;;;5142395;27;19986;-58
2022/03/24 06:37:19;;;;;;;;;;;21.30;23.50;;;;;;5138652;27;19923;-54
2022/03/24 06:39:45;;;;;;;;;;;21.20;23.50;;;;;;5146616;27;20346;-61
2022/03/24 06:42:11;;;;;;;;;;;21.10;23.50;;;;;;5142535;27;19923;-54
2022/03/24 06:44:36;;;;;;;;;;;21.10;23.50;;;;;;5148011;27;19934;-60
2022/03/24 06:47:02;;;;;;;;;;;21.20;23.40;;;;;;5142711;27;20366;-50
2022/03/24 06:49:28;;;;;;;;;;;21.10;23.40;;;;;;5142402;27;19935;-58
2022/03/24 06:51:54;;;;;;;;;;;21.10;23.40;;;;;;5147868;27;20461;-57
2022/03/24 06:54:20;;;;;;;;;;;21.30;23.20;;;;;;5123249;27;19930;-60
2022/03/24 06:56:46;;;;;;;;;;;20.90;23.50;;;;;;5137789;27;20157;-61
2022/03/24 06:59:12;;;;;;;;;;;21.10;23.30;;;;;;5147355;27;19927;-58
2022/03/24 07:01:39;;;;;;;;;;;21.10;23.30;;;;;;5142267;27;19923;-58
2022/03/24 07:04:05;;;;;;;;;;;21.20;23.30;;;;;;5147673;27;19923;-60
2022/03/24 07:06:30;;;;;;;;;;;21.10;23.40;;;;;;5142306;27;19934;-59
2022/03/24 07:08:56;;;;;;;;;;;21.20;23.30;;;;;;5142246;27;19934;-59
2022/03/24 07:11:22;;;;;;;;;;;21.10;23.40;;;;;;5147511;27;19923;-59
2022/03/24 07:13:48;;;;;;;;;;;21.20;23.40;;;;;;5139964;27;20022;-57
2022/03/24 07:16:13;;;;;;;;;;;21.00;23.50;;;;;;5139124;27;20506;-58
2022/03/24 07:18:40;;;;;;;;;;;21.20;23.30;;;;;;5147828;27;19927;-58
2022/03/24 07:21:06;;;;;;;;;;;20.80;23.80;;;;;;5142051;27;20382;-61
2022/03/24 07:23:32;;;;;;;;;;;21.10;23.50;;;;;;5147152;27;19923;-57
2022/03/24 07:25:58;;;;;;;;;;;21.10;23.50;;;;;;5142955;27;20003;-58
2022/03/24 07:28:23;;;;;;;;;;;21.10;23.50;;;;;;5142272;27;20015;-58
2022/03/24 07:30:50;;;;;;;;;;;21.30;23.40;;;;;;5147399;27;20438;-60
2022/03/24 07:33:20;;;;;;;;;;;20.90;23.80;;;;;;5138049;27;20186;-56
2022/03/24 07:35:45;;;;;;;;;;;21.20;23.50;;;;;;5141714;27;19929;-58
2022/03/24 07:38:11;;;;;;;;;;;20.90;23.70;;;;;;5147460;27;19923;-59
2022/03/24 07:40:37;;;;;;;;;;;21.20;23.50;;;;;;5142159;27;20014;-58
2022/03/24 07:43:05;;;;;;;;;;;20.90;23.70;;;;;;5143078;27;19929;-59
2022/03/24 07:45:37;;;;;;;;;;;21.10;23.60;;;;;;5147180;27;19923;-59
2022/03/24 07:48:08;;;;;;;;;;;21.10;23.60;;;;;;5144128;27;19945;-58
2022/03/24 07:50:34;;;;;;;;;;;21.30;23.50;;;;;;5149631;27;19923;-57
2022/03/24 07:53:03;;;;;;;;;;;20.90;23.90;;;;;;5141930;27;20861;-57
2022/03/24 07:55:29;;;;;;;;;;;21.10;23.60;;;;;;5145867;27;19934;-56
2022/03/24 07:57:55;;;;;;;;;;;20.90;23.90;;;;;;5151224;27;20366;-58
2022/03/24 08:00:21;;;;;;;;;;;21.20;23.60;;;;;;5145724;27;19975;-56
2022/03/24 08:02:52;;;;;;;;;;;21.00;23.90;;;;;;5145837;27;20139;-53
2022/03/24 08:05:18;;;;;;;;;;;21.20;23.60;;;;;;5133271;27;19979;-59
2022/03/24 08:07:44;;;;;;;;;;;21.20;23.70;;;;;;5145381;27;19970;-55
2022/03/24 08:10:09;;;;;;;;;;;21.00;23.80;;;;;;5142106;27;19934;-59
2022/03/24 08:12:35;;;;;;;;;;;21.30;23.60;;;;;;5149462;27;20309;-58
2022/03/24 08:15:01;;;;;;;;;;;21.00;23.80;;;;;;5145223;27;19967;-51
2022/03/24 08:17:27;;;;;;;;;;;21.20;23.60;;;;;;5150744;27;20353;-57
2022/03/24 08:19:52;;;;;;;;;;;21.10;23.80;;;;;;5145335;27;19934;-58
2022/03/24 08:22:19;;;;;;;;;;;21.20;23.60;;;;;;5145095;27;19934;-59
2022/03/24 08:24:45;;;;;;;;;;;21.10;23.80;;;;;;5132375;27;20366;-60
2022/03/24 08:27:10;;;;;;;;;;;21.30;23.50;;;;;;5144402;27;19927;-59
2022/03/24 08:29:36;;;;;;;;;;;20.90;24.00;;;;;;5140789;27;19924;-58
2022/03/24 08:32:03;;;;;;;;;;;21.20;23.70;;;;;;5150375;27;19946;-58
2022/03/24 08:34:29;;;;;;;;;;;21.00;23.90;;;;;;5144997;27;19930;-60
2022/03/24 08:36:54;;;;;;;;;;;21.10;23.80;;;;;;5150152;27;19922;-61
2022/03/24 08:39:20;;;;;;;;;;;21.10;23.90;;;;;;5144712;27;19938;-61
2022/03/24 08:41:46;;;;;;;;;;;21.20;23.70;;;;;;5144541;27;19923;-60
2022/03/24 08:44:12;;;;;;;;;;;21.10;23.80;;;;;;5149861;27;19932;-59
2022/03/24 08:46:37;;;;;;;;;;;21.20;23.70;;;;;;5141856;27;19967;-57
2022/03/24 08:49:03;;;;;;;;;;;21.10;23.90;;;;;;5142672;27;20351;-57
2022/03/24 08:51:29;;;;;;;;;;;21.20;23.80;;;;;;5149882;27;19967;-55
2022/03/24 08:53:55;;;;;;;;;;;21.30;23.70;;;;;;5144625;27;20423;-53
2022/03/24 08:56:21;;;;;;;;;;;21.00;23.70;;;;;;5150001;27;20949;-55
2022/03/24 08:58:47;;;;;;;;;;;21.30;23.50;;;;;;5143661;27;20191;-59
2022/03/24 09:01:13;;;;;;;;;;;21.00;23.70;;;;;;5144306;27;19923;-58
2022/03/24 09:03:38;;;;;;;;;;;21.30;23.60;;;;;;5149311;27;19930;-59
2022/03/24 09:06:04;;;;;;;;;;;21.00;23.70;;;;;;5139735;27;19945;-60
2022/03/24 09:08:30;;;;;;;;;;;21.20;23.60;;;;;;5143772;27;20296;-58
2022/03/24 09:10:56;;;;;;;;;;;21.10;23.80;;;;;;5150068;27;19929;-57
2022/03/24 09:13:22;;;;;;;;;;;21.00;23.80;;;;;;5144420;27;20352;-56
2022/03/24 09:15:48;;;;;;;;;;;21.30;23.60;;;;;;5149338;27;19942;-57
2022/03/24 09:18:14;;;;;;;;;;;20.90;23.80;;;;;;5144860;27;19926;-60
2022/03/24 09:20:39;;;;;;;;;;;21.30;23.50;;;;;;5144370;27;20547;-59
2022/03/24 09:23:08;;;;;;;;;;;20.80;24.10;;;;;;5147421;27;19976;-59
2022/03/24 09:25:34;;;;;;;;;;;21.30;23.80;;;;;;5140626;27;20005;-53
2022/03/24 09:27:59;;;;;;;;;;;21.00;24.10;;;;;;5143919;27;19923;-56
2022/03/24 09:30:25;;;;;;;;;;;21.30;23.90;;;;;;5148450;27;19984;-59
2022/03/24 09:32:52;;;;;;;;;;;21.00;24.30;;;;;;5143589;27;19930;-59
2022/03/24 09:35:18;;;;;;;;;;;21.30;24.10;;;;;;5145226;27;20073;-58
2022/03/24 09:37:44;;;;;;;;;;;21.00;24.30;;;;;;5147985;27;19923;-59
2022/03/24 09:40:11;;;;;;;;;;;21.20;24.20;;;;;;5143931;27;19923;-57
2022/03/24 09:42:38;;;;;;;;;;;21.00;24.50;;;;;;5145003;27;20022;-59
2022/03/24 09:45:05;;;;;;;;;;;21.20;24.20;;;;;;5142549;27;19929;-59
2022/03/24 09:47:31;;;;;;;;;;;21.00;24.40;;;;;;5143550;27;20366;-61
2022/03/24 09:49:57;;;;;;;;;;;21.30;24.10;;;;;;5148649;27;19931;-57
2022/03/24 09:52:24;;;;;;;;;;;21.00;24.20;;;;;;5143223;27;20378;-60
2022/03/24 09:54:50;;;;;;;;;;;21.30;23.40;;;;;;5143512;27;19927;-59
2022/03/24 09:57:16;;;;;;;;;;;21.00;23.50;;;;;;5130080;27;19976;-59
2022/03/24 09:59:42;;;;;;;;;;;21.30;23.30;;;;;;5142161;27;19923;-58
2022/03/24 10:02:08;;;;;;;;;;;21.10;23.50;;;;;;5125843;27;20343;-60
2022/03/24 10:04:44;;;;;;;;;;;21.30;23.40;;;;;;5143174;27;19927;-58
2022/03/24 10:07:09;;;;;;;;;;;21.00;23.80;;;;;;5143204;27;19927;-61
2022/03/24 10:09:38;;;;;;;;;;;21.30;23.50;;;;;;5148753;27;20382;-58
2022/03/24 10:12:05;;;;;;;;;;;21.10;23.60;;;;;;5143029;27;19927;-59
2022/03/24 10:14:30;;;;;;;;;;;21.30;23.40;;;;;;5125154;27;19923;-52
2022/03/24 10:17:04;;;;;;;;;;;21.00;23.60;;;;;;5129536;27;19923;-59
2022/03/24 10:19:30;;;;;;;;;;;21.30;23.40;;;;;;5139074;27;20332;-60
2022/03/24 10:21:56;;;;;;;;;;;21.10;23.40;;;;;;5141713;27;19923;-57
2022/03/24 10:24:22;;;;;;;;;;;21.20;23.30;;;;;;5148395;27;19927;-59
2022/03/24 10:26:49;;;;;;;;;;;21.20;22.80;;;;;;5143260;27;19931;-59
2022/03/24 10:29:22;;;;;;;;;;;21.20;22.70;;;;;;5148396;27;20022;-60
2022/03/24 10:31:51;;;;;;;;;;;21.20;22.70;;;;;;5144027;27;19930;-57
2022/03/24 10:34:17;;;;;;;;;;;21.10;22.60;;;;;;5142620;27;20263;-59
2022/03/24 10:36:43;;;;;;;;;;;21.30;22.50;;;;;;5127958;27;19987;-52
2022/03/24 10:39:09;;;;;;;;;;;21.10;22.70;;;;;;5139251;27;19934;-60
2022/03/24 10:41:36;;;;;;;;;;;21.30;22.60;;;;;;5142592;27;19933;-56
2022/03/24 10:44:09;;;;;;;;;;;21.10;22.80;;;;;;5129641;27;20382;-60
2022/03/24 10:46:36;;;;;;;;;;;21.20;22.70;;;;;;5142546;27;19927;-62
2022/03/24 10:49:13;;;;;;;;;;;21.30;22.60;;;;;;5124363;27;20156;-57
2022/03/24 10:51:41;;;;;;;;;;;21.20;22.50;;;;;;5147959;27;19934;-61
2022/03/24 10:54:12;;;;;;;;;;;21.30;22.50;;;;;;5142031;27;19955;-56
2022/03/24 10:56:41;;;;;;;;;;;21.10;22.80;;;;;;5138161;27;20449;-57
2022/03/24 10:59:07;;;;;;;;;;;21.30;22.80;;;;;;5128875;27;19929;-60
2022/03/24 11:01:33;;;;;;;;;;;21.20;22.70;;;;;;5142820;27;19931;-57
2022/03/24 11:03:59;;;;;;;;;;;21.20;22.70;;;;;;5147757;27;20057;-58
2022/03/24 11:06:24;;;;;;;;;;;21.30;22.30;;;;;;5142190;27;20358;-58
2022/03/24 11:08:51;;;;;;;;;;;21.20;22.10;;;;;;5142118;27;20017;-61
2022/03/24 11:11:16;;;;;;;;;;;21.20;22.30;;;;;;5147739;27;19927;-59
2022/03/24 11:13:46;;;;;;;;;;;21.20;22.50;;;;;;5141255;27;19984;-59
2022/03/24 11:16:12;;;;;;;;;;;21.30;22.50;;;;;;5138407;27;20065;-61
2022/03/24 11:18:39;;;;;;;;;;;21.30;22.30;;;;;;5147493;27;19939;-59
2022/03/24 11:21:06;;;;;;;;;;;21.30;22.00;;;;;;5141920;27;19927;-60
2022/03/24 11:23:35;;;;;;;;;;;21.30;22.00;;;;;;5150393;27;20315;-55
2022/03/24 11:26:02;;;;;;;;;;;21.30;22.10;;;;;;5113295;27;19923;-61
2022/03/24 11:28:28;;;;;;;;;;;21.30;22.00;;;;;;5146109;27;19929;-59
2022/03/24 11:30:54;;;;;;;;;;;21.30;22.00;;;;;;5133046;27;19923;-57
2022/03/24 11:33:20;;;;;;;;;;;21.20;22.20;;;;;;5142392;27;19976;-60
2022/03/24 11:35:49;;;;;;;;;;;21.20;22.40;;;;;;5144895;27;20255;-60
2022/03/24 11:38:15;;;;;;;;;;;21.20;22.30;;;;;;5151573;27;19923;-59
2022/03/24 11:40:41;;;;;;;;;;;21.20;22.40;;;;;;5145901;27;19927;-60
2022/03/24 11:43:14;;;;;;;;;;;21.30;22.10;;;;;;5145895;27;19958;-61
2022/03/24 11:45:49;;;;;;;;;;;21.30;21.40;;;;;;5132881;27;19933;-56
2022/03/24 11:48:15;;;;;;;;;;;21.30;21.40;;;;;;5145915;27;20323;-60
2022/03/24 11:50:45;;;;;;;;;;;21.30;21.30;;;;;;5147828;27;19923;-58
2022/03/24 11:53:16;;;;;;;;;;;21.30;21.00;;;;;;5145914;27;20382;-60
2022/03/24 11:56:03;;;;;;;;;;;21.30;20.70;;;;;;5127511;27;19927;-57
2022/03/24 11:58:44;;;;;;;;;;;21.30;20.30;;;;;;5147928;27;19927;-56
2022/03/24 12:01:19;;;;;;;;;;;21.40;20.00;;;;;;5150986;27;19923;-58
2022/03/24 12:03:45;;;;;;;;;;;21.50;19.80;;;;;;5145632;27;19923;-59
2022/03/24 12:06:11;;;;;;;;;;;21.50;19.70;;;;;;5148637;27;19923;-58
2022/03/24 12:08:44;;;;;;;;;;;21.60;19.80;;;;;;5147485;27;19929;-59
2022/03/24 12:11:28;;;;;;;;;;;21.50;19.90;;;;;;5140683;27;20041;-57
2022/03/24 12:13:54;;;;;;;;;;;21.50;20.10;;;;;;5149134;27;19929;-57
2022/03/24 12:16:23;;;;;;;;;;;21.50;20.10;;;;;;5147099;27;20378;-61
2022/03/24 12:18:49;;;;;;;;;;;21.50;19.60;;;;;;5145501;27;19971;-58
2022/03/24 12:21:19;;;;;;;;;;;21.60;19.30;;;;;;5150603;27;19927;-61
2022/03/24 12:24:03;;;;;;;;;;;21.70;19.20;;;;;;5145314;27;19927;-60
2022/03/24 12:26:29;;;;;;;;;;;21.70;19.20;;;;;;5144616;27;19926;-61
2022/03/24 12:29:13;;;;;;;;;;;21.70;19.40;;;;;;5145944;27;19923;-57
2022/03/24 12:31:58;;;;;;;;;;;21.70;19.40;;;;;;5144551;27;19928;-61
2022/03/24 12:34:30;;;;;;;;;;;21.70;19.70;;;;;;5144954;27;19962;-60
2022/03/24 12:36:56;;;;;;;;;;;21.70;19.70;;;;;;5150339;27;19935;-61
2022/03/24 12:39:28;;;;;;;;;;;21.80;19.10;;;;;;5126445;27;20056;-59
2022/03/24 12:42:13;;;;;;;;;;;21.80;18.90;;;;;;5144712;27;19923;-60
2022/03/24 12:44:54;;;;;;;;;;;21.80;19.30;;;;;;5149841;27;19929;-61
2022/03/24 12:47:47;;;;;;;;;;;21.70;19.40;;;;;;5143386;27;20566;-58
2022/03/24 12:50:16;;;;;;;;;;;21.70;19.40;;;;;;5137852;27;19923;-55
2022/03/24 12:52:48;;;;;;;;;;;21.80;19.10;;;;;;5146095;27;19970;-57
2022/03/24 12:55:20;;;;;;;;;;;21.80;18.80;;;;;;5149916;27;20419;-60
2022/03/24 12:57:59;;;;;;;;;;;21.90;18.80;;;;;;5144623;27;19933;-56
2022/03/24 13:00:26;;;;;;;;;;;21.80;19.00;;;;;;5146609;27;20021;-58
2022/03/24 13:02:55;;;;;;;;;;;21.80;19.10;;;;;;5148435;27;19933;-60
2022/03/24 13:05:25;;;;;;;;;;;21.90;18.90;;;;;;5141472;27;19927;-62
2022/03/24 13:07:52;;;;;;;;;;;21.90;19.00;;;;;;5147425;27;19927;-57
2022/03/24 13:10:19;;;;;;;;;;;22.00;18.80;;;;;;5144323;27;20353;-57
2022/03/24 13:12:46;;;;;;;;;;;21.90;18.50;;;;;;5144419;27;20017;-62
2022/03/24 13:15:18;;;;;;;;;;;21.90;18.30;;;;;;5149714;27;20405;-60
2022/03/24 13:17:48;;;;;;;;;;;22.00;18.20;;;;;;5144099;27;19927;-61
2022/03/24 13:20:14;;;;;;;;;;;22.00;18.20;;;;;;5125440;27;19923;-58
2022/03/24 13:22:40;;;;;;;;;;;22.00;18.30;;;;;;5148815;27;20312;-56
2022/03/24 13:25:07;;;;;;;;;;;22.00;18.10;;;;;;5139612;27;19923;-60
2022/03/24 13:27:37;;;;;;;;;;;22.10;18.00;;;;;;5145071;27;20340;-59
2022/03/24 13:30:03;;;;;;;;;;;22.00;18.20;;;;;;5149404;27;19930;-59
2022/03/24 13:32:29;;;;;;;;;;;22.10;18.20;;;;;;5143946;27;19933;-58
2022/03/24 13:35:00;;;;;;;;;;;22.10;18.30;;;;;;5149180;27;20346;-60
2022/03/24 13:37:31;;;;;;;;;;;22.10;18.10;;;;;;5143688;27;20017;-58
2022/03/24 13:39:57;;;;;;;;;;;22.10;18.20;;;;;;5143719;27;19927;-58
2022/03/24 13:42:23;;;;;;;;;;;22.20;18.30;;;;;;5145522;27;20316;-58
2022/03/24 13:44:50;;;;;;;;;;;22.20;18.30;;;;;;5140868;27;19931;-62
2022/03/24 13:47:16;;;;;;;;;;;22.30;18.40;;;;;;5143527;27;19923;-60
2022/03/24 13:49:42;;;;;;;;;;;22.30;18.30;;;;;;5149144;27;19934;-61
2022/03/24 13:52:08;;;;;;;;;;;22.30;18.30;;;;;;5143446;27;20335;-57
2022/03/24 13:54:35;;;;;;;;;;;22.20;18.50;;;;;;5146428;27;20025;-58
2022/03/24 13:57:01;;;;;;;;;;;22.20;18.30;;;;;;5146121;27;19967;-61
2022/03/24 13:59:27;;;;;;;;;;;22.30;18.20;;;;;;5142420;27;19929;-60
2022/03/24 14:01:54;;;;;;;;;;;22.30;18.30;;;;;;5144097;27;20309;-61
2022/03/24 14:04:21;;;;;;;;;;;22.30;18.30;;;;;;5143168;27;20499;-58
2022/03/24 14:07:03;;;;;;;;;;;22.30;18.50;;;;;;5143175;27;20294;-57
2022/03/24 14:09:29;;;;;;;;;;;22.30;18.40;;;;;;5148468;27;20010;-61
2022/03/24 14:12:03;;;;;;;;;;;22.30;18.50;;;;;;5142860;27;19933;-58
2022/03/24 14:14:29;;;;;;;;;;;22.30;18.30;;;;;;5142970;27;19923;-59
2022/03/24 14:16:55;;;;;;;;;;;22.30;18.10;;;;;;5147993;27;20181;-60